sensor_id;sensor_type;location;lat;lon;timestamp;temperature;humidity
431;DHT22;202;48.764;9.172;2023-06-19T00:11:53;26.00;22.30
431;DHT22;202;48.764;9.172;2023-06-19T00:14:40;25.90;22.40
431;DHT22;202;48.764;9.172;2023-06-19T00:18:18;25.90;22.40
431;DHT22;202;48.764;9.172;2023-06-19T00:21:22;26.00;22.30
431;DHT22;202;48.764;9.172;2023-06-19T00:27:43;25.90;22.60
431;DHT22;202;48.764;9.172;2023-06-19T00:30:27;25.90;22.80
431;DHT22;202;48.764;9.172;2023-06-19T00:33:22;25.80;22.70
431;DHT22;202;48.764;9.172;2023-06-19T01:16:49;25.70;23.50
431;DHT22;202;48.764;9.172;2023-06-19T01:19:33;25.80;23.30
431;DHT22;202;48.764;9.172;2023-06-19T01:29:32;25.70;23.10
431;DHT22;202;48.764;9.172;2023-06-19T01:36:08;25.60;23.50
431;DHT22;202;48.764;9.172;2023-06-19T01:38:53;25.60;23.80
431;DHT22;202;48.764;9.172;2023-06-19T01:42:31;25.60;24.00
431;DHT22;202;48.764;9.172;2023-06-19T01:52:37;25.40;24.50
431;DHT22;202;48.764;9.172;2023-06-19T01:55:15;25.30;24.80
431;DHT22;202;48.764;9.172;2023-06-19T01:57:52;25.30;25.30
431;DHT22;202;48.764;9.172;2023-06-19T02:01:20;25.30;25.80
431;DHT22;202;48.764;9.172;2023-06-19T02:04:15;25.20;26.10
431;DHT22;202;48.764;9.172;2023-06-19T02:06:57;25.20;26.40
431;DHT22;202;48.764;9.172;2023-06-19T02:10:00;25.10;26.70
431;DHT22;202;48.764;9.172;2023-06-19T02:12:54;25.10;26.90
431;DHT22;202;48.764;9.172;2023-06-19T02:26:03;24.90;27.30
431;DHT22;202;48.764;9.172;2023-06-19T02:29:11;24.90;27.30
431;DHT22;202;48.764;9.172;2023-06-19T02:32:06;24.80;27.80
431;DHT22;202;48.764;9.172;2023-06-19T02:38:41;24.70;28.10
431;DHT22;202;48.764;9.172;2023-06-19T02:41:37;24.70;28.40
431;DHT22;202;48.764;9.172;2023-06-19T02:44:39;24.70;28.50
431;DHT22;202;48.764;9.172;2023-06-19T02:47:38;24.70;28.70
431;DHT22;202;48.764;9.172;2023-06-19T02:50:48;24.70;28.70
431;DHT22;202;48.764;9.172;2023-06-19T02:53:36;24.70;28.90
431;DHT22;202;48.764;9.172;2023-06-19T02:56:28;24.80;28.90
431;DHT22;202;48.764;9.172;2023-06-19T02:59:33;24.80;28.90
431;DHT22;202;48.764;9.172;2023-06-19T03:02:15;24.70;28.90
431;DHT22;202;48.764;9.172;2023-06-19T03:08:20;24.70;29.30
431;DHT22;202;48.764;9.172;2023-06-19T03:11:02;24.40;29.80
431;DHT22;202;48.764;9.172;2023-06-19T05:10:55;23.30;39.50
431;DHT22;202;48.764;9.172;2023-06-19T05:14:05;23.30;39.30
431;DHT22;202;48.764;9.172;2023-06-19T05:17:10;23.50;39.30
431;DHT22;202;48.764;9.172;2023-06-19T05:40:21;23.70;38.90
431;DHT22;202;48.764;9.172;2023-06-19T05:42:51;23.80;38.40
431;DHT22;202;48.764;9.172;2023-06-19T05:45:37;23.80;38.30
431;DHT22;202;48.764;9.172;2023-06-19T05:48:22;23.80;38.40
431;DHT22;202;48.764;9.172;2023-06-19T05:50:50;24.00;38.30
431;DHT22;202;48.764;9.172;2023-06-19T05:53:23;24.10;38.10
431;DHT22;202;48.764;9.172;2023-06-19T06:23:35;24.60;37.30
431;DHT22;202;48.764;9.172;2023-06-19T06:29:07;24.90;36.80
431;DHT22;202;48.764;9.172;2023-06-19T06:35:09;25.00;36.80
431;DHT22;202;48.764;9.172;2023-06-19T06:38:03;25.30;35.40
431;DHT22;202;48.764;9.172;2023-06-19T06:43:46;26.40;32.00
431;DHT22;202;48.764;9.172;2023-06-19T06:46:43;26.80;30.30
431;DHT22;202;48.764;9.172;2023-06-19T06:49:16;27.10;29.20
431;DHT22;202;48.764;9.172;2023-06-19T06:51:43;27.10;28.90
431;DHT22;202;48.764;9.172;2023-06-19T06:54:14;27.20;28.40
431;DHT22;202;48.764;9.172;2023-06-19T06:56:41;27.10;28.30
431;DHT22;202;48.764;9.172;2023-06-19T06:59:14;26.60;29.00
431;DHT22;202;48.764;9.172;2023-06-19T07:01:43;26.40;29.40
431;DHT22;202;48.764;9.172;2023-06-19T07:04:10;26.40;29.80
431;DHT22;202;48.764;9.172;2023-06-19T07:06:37;26.30;29.80
431;DHT22;202;48.764;9.172;2023-06-19T07:09:38;26.10;30.10
431;DHT22;202;48.764;9.172;2023-06-19T07:16:10;25.90;30.30
431;DHT22;202;48.764;9.172;2023-06-19T07:18:40;25.80;30.90
431;DHT22;202;48.764;9.172;2023-06-19T07:21:36;25.90;30.60
431;DHT22;202;48.764;9.172;2023-06-19T07:28:32;26.30;29.60
431;DHT22;202;48.764;9.172;2023-06-19T07:31:29;26.50;29.40
431;DHT22;202;48.764;9.172;2023-06-19T07:34:26;27.60;28.60
431;DHT22;202;48.764;9.172;2023-06-19T07:37:10;29.70;24.70
431;DHT22;202;48.764;9.172;2023-06-19T07:40:10;30.50;22.70
431;DHT22;202;48.764;9.172;2023-06-19T07:43:04;31.60;21.10
431;DHT22;202;48.764;9.172;2023-06-19T08:26:19;28.10;25.30
431;DHT22;202;48.764;9.172;2023-06-19T08:28:51;28.10;25.40
431;DHT22;202;48.764;9.172;2023-06-19T08:31:23;27.70;26.00
431;DHT22;202;48.764;9.172;2023-06-19T08:33:54;27.50;26.50
431;DHT22;202;48.764;9.172;2023-06-19T08:36:21;27.40;27.00
431;DHT22;202;48.764;9.172;2023-06-19T08:38:51;27.40;27.00
431;DHT22;202;48.764;9.172;2023-06-19T08:45:10;27.20;27.50
431;DHT22;202;48.764;9.172;2023-06-19T08:47:58;27.50;27.30
431;DHT22;202;48.764;9.172;2023-06-19T08:50:59;28.30;26.50
431;DHT22;202;48.764;9.172;2023-06-19T08:54:18;29.40;24.50
431;DHT22;202;48.764;9.172;2023-06-19T08:57:07;30.20;22.60
431;DHT22;202;48.764;9.172;2023-06-19T08:59:41;30.80;21.90
431;DHT22;202;48.764;9.172;2023-06-19T09:02:20;31.40;20.50
431;DHT22;202;48.764;9.172;2023-06-19T09:05:14;31.70;20.50
431;DHT22;202;48.764;9.172;2023-06-19T09:08:18;32.10;19.20
431;DHT22;202;48.764;9.172;2023-06-19T09:14:11;32.40;18.70
431;DHT22;202;48.764;9.172;2023-06-19T09:24:35;32.20;17.90
431;DHT22;202;48.764;9.172;2023-06-19T09:27:52;32.40;18.40
431;DHT22;202;48.764;9.172;2023-06-19T09:44:02;33.00;16.50
431;DHT22;202;48.764;9.172;2023-06-19T09:46:56;32.40;17.10
431;DHT22;202;48.764;9.172;2023-06-19T09:49:55;32.20;16.90
431;DHT22;202;48.764;9.172;2023-06-19T09:52:43;31.80;18.10
431;DHT22;202;48.764;9.172;2023-06-19T09:55:29;31.80;19.70
431;DHT22;202;48.764;9.172;2023-06-19T09:57:56;31.60;19.60
431;DHT22;202;48.764;9.172;2023-06-19T10:00:46;31.40;20.00
431;DHT22;202;48.764;9.172;2023-06-19T10:03:18;31.50;20.10
431;DHT22;202;48.764;9.172;2023-06-19T10:06:00;31.50;20.30
431;DHT22;202;48.764;9.172;2023-06-19T10:08:47;31.50;20.50
431;DHT22;202;48.764;9.172;2023-06-19T10:11:42;31.60;20.70
431;DHT22;202;48.764;9.172;2023-06-19T10:14:24;31.50;19.80
431;DHT22;202;48.764;9.172;2023-06-19T10:17:42;31.00;20.60
431;DHT22;202;48.764;9.172;2023-06-19T10:20:30;31.10;20.70
431;DHT22;202;48.764;9.172;2023-06-19T10:23:01;31.10;20.70
431;DHT22;202;48.764;9.172;2023-06-19T10:25:32;31.30;20.50
431;DHT22;202;48.764;9.172;2023-06-19T10:28:00;31.60;20.00
431;DHT22;202;48.764;9.172;2023-06-19T10:30:32;31.90;19.80
431;DHT22;202;48.764;9.172;2023-06-19T10:33:03;32.10;20.00
431;DHT22;202;48.764;9.172;2023-06-19T10:35:37;32.10;20.40
431;DHT22;202;48.764;9.172;2023-06-19T10:38:08;32.00;19.90
431;DHT22;202;48.764;9.172;2023-06-19T10:40:36;31.80;20.20
431;DHT22;202;48.764;9.172;2023-06-19T10:43:03;31.60;20.40
431;DHT22;202;48.764;9.172;2023-06-19T10:45:31;31.40;21.10
431;DHT22;202;48.764;9.172;2023-06-19T10:48:03;31.20;21.10
431;DHT22;202;48.764;9.172;2023-06-19T10:50:34;31.00;22.00
431;DHT22;202;48.764;9.172;2023-06-19T10:53:02;30.70;21.80
431;DHT22;202;48.764;9.172;2023-06-19T10:55:29;30.60;21.80
431;DHT22;202;48.764;9.172;2023-06-19T10:57:56;30.50;23.10
431;DHT22;202;48.764;9.172;2023-06-19T11:00:25;30.40;22.50
431;DHT22;202;48.764;9.172;2023-06-19T11:02:53;30.30;23.70
431;DHT22;202;48.764;9.172;2023-06-19T11:05:22;30.20;23.30
431;DHT22;202;48.764;9.172;2023-06-19T11:07:53;30.30;22.80
431;DHT22;202;48.764;9.172;2023-06-19T11:10:22;30.20;23.10
431;DHT22;202;48.764;9.172;2023-06-19T11:12:49;30.20;23.60
431;DHT22;202;48.764;9.172;2023-06-19T11:15:16;30.20;23.40
431;DHT22;202;48.764;9.172;2023-06-19T11:17:43;30.50;23.30
431;DHT22;202;48.764;9.172;2023-06-19T11:20:11;30.70;23.10
431;DHT22;202;48.764;9.172;2023-06-19T11:22:41;30.80;22.60
431;DHT22;202;48.764;9.172;2023-06-19T11:25:09;31.00;22.20
431;DHT22;202;48.764;9.172;2023-06-19T11:27:38;31.00;22.60
431;DHT22;202;48.764;9.172;2023-06-19T11:30:06;30.80;21.90
431;DHT22;202;48.764;9.172;2023-06-19T11:32:36;30.80;21.90
431;DHT22;202;48.764;9.172;2023-06-19T11:35:08;31.10;22.00
431;DHT22;202;48.764;9.172;2023-06-19T11:37:36;31.20;22.10
431;DHT22;202;48.764;9.172;2023-06-19T11:40:05;31.30;21.40
431;DHT22;202;48.764;9.172;2023-06-19T11:42:47;31.10;21.40
431;DHT22;202;48.764;9.172;2023-06-19T11:45:14;31.00;21.60
431;DHT22;202;48.764;9.172;2023-06-19T11:47:43;31.00;22.00
431;DHT22;202;48.764;9.172;2023-06-19T11:50:16;30.90;21.90
431;DHT22;202;48.764;9.172;2023-06-19T11:52:51;31.00;22.00
431;DHT22;202;48.764;9.172;2023-06-19T11:59:04;31.10;22.10
431;DHT22;202;48.764;9.172;2023-06-19T12:01:31;31.30;21.60
431;DHT22;202;48.764;9.172;2023-06-19T12:03:59;31.00;21.40
431;DHT22;202;48.764;9.172;2023-06-19T12:06:26;31.00;22.00
431;DHT22;202;48.764;9.172;2023-06-19T12:08:53;30.90;21.90
431;DHT22;202;48.764;9.172;2023-06-19T12:11:20;30.70;21.80
431;DHT22;202;48.764;9.172;2023-06-19T12:13:47;30.60;21.80
431;DHT22;202;48.764;9.172;2023-06-19T12:16:15;30.50;21.80
431;DHT22;202;48.764;9.172;2023-06-19T12:18:42;30.70;21.90
431;DHT22;202;48.764;9.172;2023-06-19T12:21:09;30.80;21.90
431;DHT22;202;48.764;9.172;2023-06-19T12:23:36;30.90;21.90
431;DHT22;202;48.764;9.172;2023-06-19T12:26:03;30.90;21.90
431;DHT22;202;48.764;9.172;2023-06-19T12:28:30;31.00;21.60
431;DHT22;202;48.764;9.172;2023-06-19T12:31:02;31.10;21.30
431;DHT22;202;48.764;9.172;2023-06-19T12:33:32;31.00;21.40
431;DHT22;202;48.764;9.172;2023-06-19T12:35:59;31.10;22.10
431;DHT22;202;48.764;9.172;2023-06-19T12:38:26;31.20;22.10
431;DHT22;202;48.764;9.172;2023-06-19T12:40:53;31.20;21.30
431;DHT22;202;48.764;9.172;2023-06-19T12:43:20;31.10;22.00
431;DHT22;202;48.764;9.172;2023-06-19T12:45:47;31.10;21.40
431;DHT22;202;48.764;9.172;2023-06-19T12:48:14;31.20;21.80
431;DHT22;202;48.764;9.172;2023-06-19T12:50:42;31.20;21.00
431;DHT22;202;48.764;9.172;2023-06-19T12:53:09;31.20;21.30
431;DHT22;202;48.764;9.172;2023-06-19T12:55:37;31.20;21.30
431;DHT22;202;48.764;9.172;2023-06-19T12:58:14;31.20;21.20
431;DHT22;202;48.764;9.172;2023-06-19T13:01:25;31.20;21.20
431;DHT22;202;48.764;9.172;2023-06-19T13:04:11;31.30;21.60
431;DHT22;202;48.764;9.172;2023-06-19T13:06:45;31.30;21.30
431;DHT22;202;48.764;9.172;2023-06-19T13:09:13;31.20;21.20
431;DHT22;202;48.764;9.172;2023-06-19T13:12:01;30.90;21.90
431;DHT22;202;48.764;9.172;2023-06-19T13:14:31;30.70;21.80
431;DHT22;202;48.764;9.172;2023-06-19T13:17:03;30.50;21.70
431;DHT22;202;48.764;9.172;2023-06-19T13:19:31;30.20;21.90
431;DHT22;202;48.764;9.172;2023-06-19T13:22:08;30.30;21.70
431;DHT22;202;48.764;9.172;2023-06-19T13:28:23;30.40;21.70
431;DHT22;202;48.764;9.172;2023-06-19T13:30:53;30.30;21.60
431;DHT22;202;48.764;9.172;2023-06-19T13:33:21;30.40;21.70
431;DHT22;202;48.764;9.172;2023-06-19T13:35:59;30.40;21.70
431;DHT22;202;48.764;9.172;2023-06-19T13:38:29;30.50;21.80
431;DHT22;202;48.764;9.172;2023-06-19T13:41:39;30.50;21.70
431;DHT22;202;48.764;9.172;2023-06-19T13:44:11;30.20;22.00
431;DHT22;202;48.764;9.172;2023-06-19T13:46:45;30.20;21.50
431;DHT22;202;48.764;9.172;2023-06-19T13:49:22;30.10;21.50
431;DHT22;202;48.764;9.172;2023-06-19T13:51:53;30.20;22.00
431;DHT22;202;48.764;9.172;2023-06-19T14:05:13;30.60;21.80
431;DHT22;202;48.764;9.172;2023-06-19T14:07:57;30.70;21.80
431;DHT22;202;48.764;9.172;2023-06-19T14:14:12;30.70;21.80
431;DHT22;202;48.764;9.172;2023-06-19T15:49:29;30.40;21.70
431;DHT22;202;48.764;9.172;2023-06-19T15:52:37;30.50;21.70
431;DHT22;202;48.764;9.172;2023-06-19T16:05:54;30.80;21.40
431;DHT22;202;48.764;9.172;2023-06-19T16:09:10;30.80;21.10
431;DHT22;202;48.764;9.172;2023-06-19T17:36:26;29.80;25.90
431;DHT22;202;48.764;9.172;2023-06-19T17:46:04;29.30;26.60
431;DHT22;202;48.764;9.172;2023-06-19T17:48:39;29.20;27.00
431;DHT22;202;48.764;9.172;2023-06-19T18:21:01;29.00;27.70
431;DHT22;202;48.764;9.172;2023-06-19T18:53:51;28.60;29.10
431;DHT22;202;48.764;9.172;2023-06-19T18:56:25;28.40;29.00
431;DHT22;202;48.764;9.172;2023-06-19T19:02:25;28.10;28.90
431;DHT22;202;48.764;9.172;2023-06-19T22:16:13;25.20;42.30
431;DHT22;202;48.764;9.172;2023-06-19T22:18:57;24.90;43.10
431;DHT22;202;48.764;9.172;2023-06-19T22:21:27;24.90;43.90
431;DHT22;202;48.764;9.172;2023-06-19T22:24:02;24.90;43.80
431;DHT22;202;48.764;9.172;2023-06-19T22:26:51;24.80;44.00
431;DHT22;202;48.764;9.172;2023-06-19T22:29:40;24.90;44.10
431;DHT22;202;48.764;9.172;2023-06-19T22:48:07;24.90;43.90
431;DHT22;202;48.764;9.172;2023-06-19T22:50:49;24.90;43.00
431;DHT22;202;48.764;9.172;2023-06-19T23:03:51;24.70;43.60
431;DHT22;202;48.764;9.172;2023-06-19T23:06:32;24.60;43.70
431;DHT22;202;48.764;9.172;2023-06-19T23:09:10;24.50;43.90
431;DHT22;202;48.764;9.172;2023-06-19T23:11:53;24.50;43.90
431;DHT22;202;48.764;9.172;2023-06-19T23:14:48;24.60;43.80
431;DHT22;202;48.764;9.172;2023-06-19T23:17:29;24.50;44.20
431;DHT22;202;48.764;9.172;2023-06-19T23:23:26;24.40;44.70
431;DHT22;202;48.764;9.172;2023-06-19T23:26:24;24.40;44.70
431;DHT22;202;48.764;9.172;2023-06-19T23:29:10;24.40;44.70
431;DHT22;202;48.764;9.172;2023-06-19T23:32:03;24.40;44.60
431;DHT22;202;48.764;9.172;2023-06-19T23:34:52;24.40;44.50
431;DHT22;202;48.764;9.172;2023-06-19T23:37:45;24.40;44.00
431;DHT22;202;48.764;9.172;2023-06-19T23:43:11;24.50;43.80
431;DHT22;202;48.764;9.172;2023-06-19T23:46:22;24.60;42.90
431;DHT22;202;48.764;9.172;2023-06-19T23:52:29;24.50;43.30
431;DHT22;202;48.764;9.172;2023-06-19T23:55:34;24.50;43.00
431;DHT22;202;48.764;9.172;2023-06-19T23:58:09;24.50;42.90
